Mosul, Iraq

10:03 PM AST on September 19, 2014 (GMT +0300)
Erbeel | Change Station
CLOSE
Current Station
Airport
Location: Erbeel,
Elevation: 1378 ft
Nearby Weather Stations

Elev 1378 ft 36.15 °N, 44.00 °E | Updated 3 minutes ago

Clear
Clear
82 °F
Feels Like 82 °F
N
0
Wind Variable Wind from North

Today
High -- | Low -- °F
--% Chance of Precip.
Yesterday
High -- | Low -- °F
Precip. -- in
5:52 AM 6:09 PM
Waning Crescent, 17% visible
Pressure 29.83 in
Visibility 5.6 miles
Clouds
Dew Point 37 °F
Humidity 20%
Rainfall 0.00 in
Snow Depth Not available.
UV Not available.
Pollen Not available.
Air Quality Not available.
Flu Activity Not available.
METAR ORER 191900Z 00000KT 9000 NSC 28/03 Q1010 NOSIG

More Conditions Fewer Conditions

Pressure 29.83 in
Visibility 5.6 miles
Clouds
Dew Point 37 °F
Humidity 20%
Rainfall 0.00 in
Snow Depth Not available.
UV Not available.
Pollen Not available.
Air Quality Not available.
Flu Activity Not available.
METAR ORER 191900Z 00000KT 9000 NSC 28/03 Q1010 NOSIG

More Conditions Fewer Conditions

10-Day Weather Forecast

Almanac

Astronomy

Sep. 19, 2014 Rise Set
Actual Time 5:52 AM AST 6:09 PM AST
Civil Twilight 5:26 AM AST 6:34 PM AST
Nautical Twilight 4:56 AM AST 7:05 PM AST
Astronomical Twilight 4:26 AM AST 7:35 PM AST
Moon 1:24 AM AST 3:19 PM AST
Length of Visible Light 13h 08m
Length of Day
12h 16m
Tomorrow will be 2m 17s shorter.
Waning Crescent, 17% of the Moon is Illuminated
Today
Waning Crescent
Sep 24
New
Oct 1
First Quarter
Oct 8
Full
Oct 15
Last Quarter

Today's Extremes

Country Highs Country Lows

Community

WunderPhotos

Upload Photos

1,754,684 photos uploaded!

WunderBlogs® & News

Nearby

Snow Depth

Not available.

Earthquake Activity

City Distance Mag. Time & Date
No recent earthquake activity has been reported nearby.
Minimum magnitude displayed is 2.5.

Coastal Water Temperatures

Place Temperature
No Stations Reporting

Nearby Weather Stations